createdAt,value
2018-04-18T00:00:31.587Z,10.90
2018-04-18T00:02:59.056Z,10.50
2018-04-18T00:05:26.537Z,10.73
2018-04-18T00:07:54.221Z,10.70
2018-04-18T00:10:21.676Z,9.15
2018-04-18T00:12:50.062Z,9.30
2018-04-18T00:15:17.547Z,11.07
2018-04-18T00:17:45.124Z,10.75
2018-04-18T00:20:12.589Z,10.55
2018-04-18T00:22:40.856Z,10.50
2018-04-18T00:25:09.094Z,10.82
2018-04-18T00:27:36.793Z,12.07
2018-04-18T00:30:04.252Z,10.30
2018-04-18T00:32:31.712Z,10.13
2018-04-18T00:34:59.180Z,9.93
2018-04-18T00:37:26.667Z,12.25
2018-04-18T00:39:54.151Z,11.80
2018-04-18T00:42:21.637Z,10.57
2018-04-18T00:44:49.300Z,11.60
2018-04-18T00:47:17.611Z,11.93
2018-04-18T00:49:45.080Z,12.00
2018-04-18T00:52:12.584Z,12.90
2018-04-18T00:54:40.048Z,13.75
2018-04-18T00:57:07.496Z,13.55
2018-04-18T00:59:36.676Z,12.23
2018-04-18T01:02:04.127Z,11.60
2018-04-18T01:04:31.622Z,12.43
2018-04-18T01:06:59.078Z,10.07
2018-04-18T01:09:26.590Z,10.93
2018-04-18T01:11:54.045Z,11.37
2018-04-18T01:14:21.917Z,11.83
2018-04-18T01:16:49.372Z,12.13
2018-04-18T01:19:16.878Z,12.40
2018-04-18T01:21:45.765Z,11.48
2018-04-18T01:24:13.222Z,10.90
2018-04-18T01:26:41.471Z,11.40
2018-04-18T01:29:09.518Z,12.55
2018-04-18T01:31:37.005Z,13.17
2018-04-18T01:34:04.505Z,13.03
2018-04-18T01:36:31.960Z,12.50
2018-04-18T01:39:00.216Z,10.10
2018-04-18T01:41:27.679Z,10.80
2018-04-18T01:43:55.438Z,11.83
2018-04-18T01:46:23.543Z,11.07
2018-04-18T01:48:51.018Z,10.65
2018-04-18T01:51:18.518Z,12.05
2018-04-18T01:53:46.757Z,11.73
2018-04-18T01:56:14.222Z,11.67
2018-04-18T01:58:42.332Z,12.25
2018-04-18T02:01:09.811Z,13.23
2018-04-18T02:03:38.045Z,11.87
2018-04-18T02:06:05.523Z,11.60
2018-04-18T02:08:33.011Z,11.80
2018-04-18T02:11:01.949Z,11.52
2018-04-18T02:13:32.820Z,10.10
2018-04-18T02:16:00.272Z,11.30
2018-04-18T02:18:27.987Z,10.97
2018-04-18T02:20:57.339Z,11.02
2018-04-18T02:23:25.558Z,11.20
2018-04-18T02:25:53.045Z,12.20
2018-04-18T02:28:22.030Z,13.57
2018-04-18T02:30:49.762Z,11.52
2018-04-18T02:33:17.234Z,14.97
2018-04-18T02:35:45.769Z,13.00
2018-04-18T02:38:13.256Z,12.48
2018-04-18T02:40:40.729Z,13.20
2018-04-18T02:43:11.613Z,14.77
2018-04-18T02:45:39.067Z,12.77
2018-04-18T02:48:06.567Z,13.17
2018-04-18T02:50:34.036Z,12.95
2018-04-18T02:53:01.502Z,13.40
2018-04-18T02:55:29.809Z,12.45
2018-04-18T02:57:57.305Z,12.05
2018-04-18T03:00:25.091Z,13.40
2018-04-18T03:02:52.527Z,12.10
2018-04-18T03:05:20.054Z,12.40
2018-04-18T03:07:48.020Z,10.98
2018-04-18T03:10:15.476Z,11.47
2018-04-18T03:12:44.513Z,12.02
2018-04-18T03:15:12.035Z,11.35
2018-04-18T03:17:39.489Z,11.00
2018-04-18T03:20:09.392Z,10.93
2018-04-18T03:22:36.851Z,11.97
2018-04-18T03:25:04.386Z,12.40
2018-04-18T03:27:31.845Z,13.37
2018-04-18T03:30:06.550Z,13.35
2018-04-18T03:32:34.019Z,12.23
2018-04-18T03:35:01.512Z,12.40
2018-04-18T03:37:28.993Z,11.57
2018-04-18T03:39:56.473Z,11.57
2018-04-18T03:42:23.960Z,10.53
2018-04-18T03:44:51.508Z,11.12
2018-04-18T03:47:19.011Z,11.40
2018-04-18T03:49:47.973Z,11.73
2018-04-18T03:52:15.435Z,11.83
2018-04-18T03:54:42.917Z,12.07
2018-04-18T03:57:10.374Z,11.57
2018-04-18T03:59:40.701Z,11.27
2018-04-18T04:02:08.157Z,11.80
2018-04-18T04:04:35.689Z,11.70
2018-04-18T04:07:03.178Z,11.17
2018-04-18T04:09:31.300Z,11.60
2018-04-18T04:11:58.799Z,13.35
2018-04-18T04:14:26.312Z,12.07
2018-04-18T04:17:05.706Z,11.30
2018-04-18T04:22:46.273Z,11.20
2018-04-18T04:25:13.792Z,10.23
2018-04-18T04:27:41.510Z,11.17
2018-04-18T04:30:09.125Z,11.68
2018-04-18T04:32:36.622Z,12.30
2018-04-18T04:35:04.112Z,10.50
2018-04-18T04:37:32.341Z,10.15
2018-04-18T04:39:59.837Z,11.05
2018-04-18T04:42:27.375Z,12.00
2018-04-18T04:44:54.977Z,11.13
2018-04-18T04:47:23.904Z,10.52
2018-04-18T04:49:51.681Z,10.50
2018-04-18T04:52:21.251Z,10.63
2018-04-18T04:54:48.734Z,9.53
2018-04-18T04:57:16.196Z,9.67
2018-04-18T04:59:43.687Z,10.50
2018-04-18T05:02:11.142Z,7.70
2018-04-18T05:04:38.650Z,8.85
2018-04-18T05:07:07.184Z,8.43
2018-04-18T05:09:34.631Z,8.13
2018-04-18T05:12:02.127Z,8.10
2018-04-18T05:14:29.643Z,9.30
2018-04-18T05:16:57.122Z,9.00
2018-04-18T05:19:24.643Z,11.07
2018-04-18T05:21:52.196Z,9.82
2018-04-18T05:24:20.605Z,8.68
2018-04-18T05:26:48.109Z,8.30
2018-04-18T05:29:15.620Z,8.87
2018-04-18T05:31:43.092Z,8.35
2018-04-18T05:34:10.575Z,9.30
2018-04-18T05:36:38.050Z,8.70
2018-04-18T05:39:06.421Z,10.60
2018-04-18T05:41:35.362Z,9.13
2018-04-18T05:44:02.870Z,10.10
2018-04-18T05:46:33.964Z,9.90
2018-04-18T05:49:01.440Z,8.75
2018-04-18T05:51:30.229Z,10.00
2018-04-18T05:53:58.457Z,9.20
2018-04-18T05:56:25.945Z,9.65
2018-04-18T05:58:55.037Z,10.48
2018-04-18T06:01:26.888Z,10.17
2018-04-18T06:03:54.597Z,10.57
2018-04-18T06:06:22.143Z,11.33
2018-04-18T06:08:49.651Z,11.37
2018-04-18T06:11:17.343Z,12.70
2018-04-18T06:13:44.856Z,10.98
2018-04-18T06:16:12.512Z,14.02
2018-04-18T06:18:40.768Z,10.83
2018-04-18T06:21:08.253Z,12.00
2018-04-18T06:23:35.753Z,12.82
2018-04-18T06:26:03.226Z,13.40
2018-04-18T06:28:30.744Z,13.73
2018-04-18T06:30:58.220Z,15.03
2018-04-18T06:33:31.003Z,15.50
2018-04-18T06:35:58.479Z,14.30
2018-04-18T06:38:25.956Z,14.80
2018-04-18T06:40:53.439Z,14.07
2018-04-18T06:43:20.900Z,15.83
2018-04-18T06:45:48.400Z,14.10
2018-04-18T06:48:15.861Z,13.90
2018-04-18T06:50:43.316Z,13.57
2018-04-18T06:53:12.396Z,14.98
2018-04-18T06:55:39.950Z,15.37
2018-04-18T06:58:07.566Z,15.43
2018-04-18T07:00:35.099Z,15.48
2018-04-18T07:03:07.167Z,14.02
2018-04-18T07:05:34.621Z,15.17
2018-04-18T07:08:02.129Z,16.12
2018-04-18T07:10:29.595Z,15.00
2018-04-18T07:12:57.088Z,13.97
2018-04-18T07:15:24.575Z,13.65
2018-04-18T07:17:52.046Z,13.13
2018-04-18T07:20:20.105Z,14.04
2018-04-18T07:22:47.588Z,15.10
2018-04-18T07:25:15.061Z,15.27
2018-04-18T07:27:42.595Z,14.87
2018-04-18T07:30:10.045Z,14.98
2018-04-18T07:32:37.681Z,15.30
2018-04-18T07:35:05.152Z,14.17
2018-04-18T07:37:32.646Z,15.57
2018-04-18T07:40:00.217Z,14.70
2018-04-18T07:42:28.609Z,15.20
2018-04-18T07:44:56.089Z,16.63
2018-04-18T07:47:24.313Z,15.03
2018-04-18T07:49:55.353Z,15.00
2018-04-18T07:52:23.496Z,14.65
2018-04-18T07:54:51.033Z,14.03
2018-04-18T07:57:18.492Z,15.57
2018-04-18T07:59:46.784Z,16.80
2018-04-18T08:02:14.273Z,14.95
2018-04-18T08:04:42.325Z,14.03
2018-04-18T08:07:09.832Z,16.62
2018-04-18T08:09:37.341Z,14.20
2018-04-18T08:12:04.848Z,15.30
2018-04-18T08:14:32.314Z,14.68
2018-04-18T08:17:00.602Z,14.95
2018-04-18T08:19:28.088Z,14.60
2018-04-18T08:21:56.398Z,15.80
2018-04-18T08:24:23.877Z,15.00
2018-04-18T08:26:51.352Z,14.32
2018-04-18T08:29:18.889Z,15.30
2018-04-18T08:31:46.345Z,14.70
2018-04-18T08:34:17.385Z,16.23
2018-04-18T08:36:45.348Z,14.82
2018-04-18T08:39:12.848Z,16.47
2018-04-18T08:41:40.571Z,15.70
2018-04-18T08:44:08.089Z,15.60
2018-04-18T08:46:35.622Z,18.00
2018-04-18T08:49:04.814Z,17.00
2018-04-18T08:51:36.853Z,15.70
2018-04-18T08:54:05.828Z,15.13
2018-04-18T08:56:33.321Z,15.33
2018-04-18T08:59:00.789Z,14.97
2018-04-18T09:01:29.958Z,14.00
2018-04-18T09:03:58.037Z,14.20
2018-04-18T09:06:29.811Z,13.80
2018-04-18T09:08:57.597Z,15.80
2018-04-18T09:11:25.045Z,13.27
2018-04-18T09:13:52.536Z,13.23
2018-04-18T09:16:20.181Z,16.10
2018-04-18T09:18:47.902Z,15.15
2018-04-18T09:21:18.321Z,13.40
2018-04-18T09:23:45.807Z,12.80
2018-04-18T09:26:14.005Z,13.47
2018-04-18T09:28:41.469Z,13.48
2018-04-18T09:31:08.985Z,13.07
2018-04-18T09:33:36.512Z,9.30
2018-04-18T09:36:03.993Z,8.45
2018-04-18T09:38:31.476Z,7.70
2018-04-18T09:40:58.959Z,6.50
2018-04-18T09:43:26.432Z,7.17
2018-04-18T09:45:53.923Z,5.87
2018-04-18T09:48:22.322Z,5.30
2018-04-18T09:50:53.673Z,5.55
2018-04-18T09:53:21.188Z,5.75
2018-04-18T09:55:48.751Z,4.60
2018-04-18T09:58:16.245Z,4.37
2018-04-18T10:00:49.376Z,4.00
2018-04-18T10:03:16.853Z,4.05
2018-04-18T10:05:44.401Z,5.37
2018-04-18T10:08:12.556Z,4.28
2018-04-18T10:10:40.038Z,4.20
2018-04-18T10:13:07.822Z,4.10
2018-04-18T10:15:35.321Z,3.07
2018-04-18T10:18:02.814Z,4.20
2018-04-18T10:20:30.279Z,2.90
2018-04-18T10:22:57.821Z,4.33
2018-04-18T10:25:26.004Z,3.03
2018-04-18T10:27:53.492Z,2.83
2018-04-18T10:30:20.943Z,4.07
2018-04-18T10:32:48.594Z,3.73
2018-04-18T10:35:16.074Z,3.40
2018-04-18T10:37:43.569Z,3.55
2018-04-18T10:40:11.039Z,4.47
2018-04-18T10:42:38.643Z,4.33
2018-04-18T10:45:06.139Z,3.28
2018-04-18T10:47:33.651Z,3.03
2018-04-18T10:50:01.221Z,5.20
2018-04-18T10:52:30.107Z,3.20
2018-04-18T10:54:57.870Z,3.20
2018-04-18T10:57:25.332Z,3.83
2018-04-18T10:59:53.832Z,3.10
2018-04-18T11:02:21.282Z,3.73
2018-04-18T11:04:48.970Z,3.03
2018-04-18T11:07:16.500Z,2.33
2018-04-18T11:09:43.965Z,4.20
2018-04-18T11:12:11.601Z,3.30
2018-04-18T11:14:39.088Z,3.37
2018-04-18T11:17:06.553Z,3.60
2018-04-18T11:19:34.125Z,3.30
2018-04-18T11:22:01.803Z,2.95
2018-04-18T11:24:29.323Z,2.70
2018-04-18T11:26:57.003Z,2.93
2018-04-18T11:29:24.440Z,3.27
2018-04-18T11:31:51.910Z,2.97
2018-04-18T11:34:19.393Z,2.10
2018-04-18T11:36:46.870Z,3.03
2018-04-18T11:39:15.378Z,2.42
2018-04-18T11:41:42.848Z,3.07
2018-04-18T11:44:10.314Z,3.50
2018-04-18T11:46:37.794Z,3.27
2018-04-18T11:49:05.241Z,2.70
2018-04-18T11:51:32.725Z,2.95
2018-04-18T11:54:00.184Z,2.58
2018-04-18T11:56:27.640Z,3.23
2018-04-18T11:58:55.163Z,2.23
2018-04-18T12:01:23.432Z,2.90
2018-04-18T12:03:51.717Z,3.40
2018-04-18T12:06:19.373Z,2.70
2018-04-18T12:08:46.849Z,2.58
2018-04-18T12:11:14.367Z,1.90
2018-04-18T12:13:43.535Z,2.40
2018-04-18T12:16:11.009Z,2.80
2018-04-18T12:18:38.476Z,3.67
2018-04-18T12:21:05.959Z,2.50
2018-04-18T12:23:33.586Z,2.40
2018-04-18T12:26:06.391Z,3.62
2018-04-18T12:28:34.036Z,2.57
2018-04-18T12:31:03.380Z,2.33
2018-04-18T12:33:30.876Z,2.33
2018-04-18T12:35:58.337Z,5.53
2018-04-18T12:38:29.810Z,3.00
2018-04-18T12:40:57.630Z,2.95
2018-04-18T12:43:25.132Z,3.53
2018-04-18T12:45:52.594Z,3.33
2018-04-18T12:48:20.906Z,2.87
2018-04-18T12:50:48.484Z,2.80
2018-04-18T12:53:19.864Z,2.78
2018-04-18T12:55:51.328Z,2.17
2018-04-18T12:58:18.986Z,2.50
2018-04-18T13:00:47.411Z,2.60
2018-04-18T13:03:14.881Z,2.13
2018-04-18T13:05:42.373Z,3.70
2018-04-18T13:08:09.859Z,4.03
2018-04-18T13:10:41.293Z,2.70
2018-04-18T13:13:08.671Z,2.77
2018-04-18T13:15:37.082Z,2.77
2018-04-18T13:18:04.546Z,3.10
2018-04-18T13:20:32.035Z,2.37
2018-04-18T13:22:59.521Z,2.83
2018-04-18T13:25:30.228Z,2.97
2018-04-18T13:27:57.686Z,2.57
2018-04-18T13:30:25.188Z,2.70
2018-04-18T13:32:52.696Z,2.70
2018-04-18T13:35:20.926Z,2.42
2018-04-18T13:37:48.390Z,2.40
2018-04-18T13:40:15.865Z,2.97
2018-04-18T13:42:43.320Z,2.60
2018-04-18T13:45:10.831Z,3.13
2018-04-18T13:47:38.313Z,2.20
2018-04-18T13:50:05.785Z,2.07
2018-04-18T13:52:33.286Z,2.87
2018-04-18T13:55:04.649Z,2.57
2018-04-18T13:57:32.344Z,2.35
2018-04-18T13:59:59.803Z,2.40
2018-04-18T14:02:27.357Z,2.20
2018-04-18T14:04:54.804Z,2.70
2018-04-18T14:07:22.489Z,2.40
2018-04-18T14:09:53.073Z,3.10
2018-04-18T14:12:20.518Z,3.13
2018-04-18T14:14:48.833Z,3.15
2018-04-18T14:17:16.337Z,3.20
2018-04-18T14:19:43.809Z,2.62
2018-04-18T14:22:11.337Z,4.00
2018-04-18T14:24:38.880Z,2.80
2018-04-18T14:27:06.491Z,3.00
2018-04-18T14:29:33.969Z,2.73
2018-04-18T14:32:03.128Z,2.85
2018-04-18T14:34:30.591Z,3.30
2018-04-18T14:36:58.099Z,3.77
2018-04-18T14:39:25.585Z,4.72
2018-04-18T14:41:53.060Z,2.83
2018-04-18T14:44:20.545Z,3.50
2018-04-18T14:46:48.084Z,3.33
2018-04-18T14:49:16.915Z,2.90
2018-04-18T14:51:44.628Z,3.37
2018-04-18T14:54:12.098Z,3.50
2018-04-18T14:56:51.286Z,3.53
2018-04-18T14:59:18.766Z,4.73
2018-04-18T15:01:46.237Z,4.10
2018-04-18T15:04:13.713Z,3.20
2018-04-18T15:06:42.250Z,3.33
2018-04-18T15:09:09.841Z,3.40
2018-04-18T15:11:40.887Z,3.57
2018-04-18T15:14:08.393Z,2.40
2018-04-18T15:16:37.404Z,3.05
2018-04-18T15:19:04.873Z,4.33
2018-04-18T15:21:32.407Z,3.60
2018-04-18T15:24:00.013Z,3.30
2018-04-18T15:26:27.489Z,3.50
2018-04-18T15:28:54.990Z,3.23
2018-04-18T15:31:22.452Z,3.13
2018-04-18T15:33:50.752Z,3.50
2018-04-18T15:36:18.268Z,2.70
2018-04-18T15:38:45.757Z,3.80
2018-04-18T15:41:13.213Z,3.65
2018-04-18T15:43:40.727Z,2.90
2018-04-18T15:46:08.202Z,3.97
2018-04-18T15:48:35.695Z,3.53
2018-04-18T15:51:05.181Z,3.92
2018-04-18T15:53:32.693Z,3.33
2018-04-18T15:56:00.956Z,4.47
2018-04-18T15:58:30.370Z,4.37
2018-04-18T16:00:57.881Z,4.07
2018-04-18T16:03:25.344Z,4.32
2018-04-18T16:05:53.488Z,3.87
2018-04-18T16:08:20.983Z,3.60
2018-04-18T16:10:48.463Z,3.40
2018-04-18T16:13:16.716Z,2.90
2018-04-18T16:15:44.273Z,5.00
2018-04-18T16:18:11.896Z,4.30
2018-04-18T16:20:39.393Z,3.37
2018-04-18T16:23:07.534Z,4.18
2018-04-18T16:25:35.079Z,3.10
2018-04-18T16:28:02.543Z,3.50
2018-04-18T16:30:41.991Z,3.65
2018-04-18T16:33:09.488Z,3.67
2018-04-18T16:35:36.987Z,4.10
2018-04-18T16:38:04.475Z,3.97
2018-04-18T16:40:32.867Z,4.00
2018-04-18T16:43:00.358Z,4.40
2018-04-18T16:45:27.804Z,4.23
2018-04-18T16:47:55.270Z,5.80
2018-04-18T16:50:22.923Z,3.63
2018-04-18T16:52:50.441Z,4.37
2018-04-18T16:55:17.895Z,4.30
2018-04-18T16:57:52.426Z,4.90
2018-04-18T17:00:19.939Z,4.22
2018-04-18T17:02:47.436Z,3.35
2018-04-18T17:05:15.658Z,4.27
2018-04-18T17:07:43.132Z,3.20
2018-04-18T17:10:10.596Z,4.50
2018-04-18T17:12:45.244Z,4.10
2018-04-18T17:15:12.853Z,3.87
2018-04-18T17:17:40.316Z,4.00
2018-04-18T17:20:07.777Z,4.40
2018-04-18T17:22:35.324Z,4.63
2018-04-18T17:25:02.895Z,4.90
2018-04-18T17:27:30.353Z,5.30
2018-04-18T17:29:57.853Z,4.60
2018-04-18T17:32:26.562Z,6.05
2018-04-18T17:34:54.054Z,4.60
2018-04-18T17:37:21.517Z,5.20
2018-04-18T17:39:49.271Z,4.53
2018-04-18T17:42:16.752Z,5.53
2018-04-18T17:44:47.657Z,5.30
2018-04-18T17:47:16.037Z,5.23
2018-04-18T17:49:43.511Z,3.83
2018-04-18T17:52:11.122Z,4.47
2018-04-18T17:54:38.605Z,4.03
2018-04-18T17:57:06.082Z,4.83
2018-04-18T17:59:33.567Z,5.53
2018-04-18T18:02:01.025Z,6.22
2018-04-18T18:04:30.096Z,5.00
2018-04-18T18:06:57.748Z,4.70
2018-04-18T18:09:26.000Z,6.00
2018-04-18T18:11:53.748Z,4.80
2018-04-18T18:14:24.321Z,4.80
2018-04-18T18:16:51.780Z,5.47
2018-04-18T18:19:19.231Z,6.20
2018-04-18T18:21:46.723Z,5.65
2018-04-18T18:24:14.297Z,5.40
2018-04-18T18:26:41.774Z,5.85
2018-04-18T18:29:10.973Z,6.17
2018-04-18T18:31:39.324Z,4.95
2018-04-18T18:34:09.174Z,5.57
2018-04-18T18:36:36.753Z,5.50
2018-04-18T18:39:04.222Z,5.57
2018-04-18T18:41:32.613Z,5.35
2018-04-18T18:44:00.117Z,6.07
2018-04-18T18:46:27.679Z,5.97
2018-04-18T18:48:55.133Z,6.00
2018-04-18T18:51:22.699Z,7.83
2018-04-18T18:53:50.210Z,6.27
2018-04-18T18:56:17.670Z,5.80
2018-04-18T18:58:45.173Z,6.07
2018-04-18T19:01:12.632Z,6.35
2018-04-18T19:03:41.049Z,6.63
2018-04-18T19:06:08.552Z,8.33
2018-04-18T19:08:36.013Z,7.57
2018-04-18T19:11:03.538Z,7.12
2018-04-18T19:13:31.802Z,6.97
2018-04-18T19:16:00.048Z,6.86
2018-04-18T19:18:27.545Z,6.60
2018-04-18T19:20:57.307Z,5.85
2018-04-18T19:23:25.927Z,6.57
2018-04-18T19:25:53.406Z,6.60
2018-04-18T19:28:20.925Z,6.03
2018-04-18T19:30:51.968Z,5.70
2018-04-18T19:33:20.071Z,5.65
2018-04-18T19:35:47.573Z,6.43
2018-04-18T19:38:15.032Z,6.37
2018-04-18T19:40:43.244Z,5.68
2018-04-18T19:43:10.764Z,7.18
2018-04-18T19:45:39.763Z,5.83
2018-04-18T19:48:07.241Z,5.35
2018-04-18T19:50:34.896Z,5.90
2018-04-18T19:53:02.586Z,5.85
2018-04-18T19:55:30.040Z,5.87
2018-04-18T19:57:58.364Z,7.30
2018-04-18T20:00:25.822Z,6.60
2018-04-18T20:02:53.544Z,7.65
2018-04-18T20:05:21.025Z,7.00
2018-04-18T20:07:48.613Z,6.60
2018-04-18T20:10:16.094Z,6.73
2018-04-18T20:12:43.673Z,6.90
2018-04-18T20:15:11.937Z,7.90
2018-04-18T20:17:43.288Z,7.33
2018-04-18T20:20:10.935Z,6.17
2018-04-18T20:22:38.460Z,6.33
2018-04-18T20:25:06.704Z,6.75
2018-04-18T20:27:34.164Z,7.00
2018-04-18T20:30:01.663Z,7.77
2018-04-18T20:32:29.124Z,7.20
2018-04-18T20:34:56.616Z,7.27
2018-04-18T20:37:24.214Z,7.18
2018-04-18T20:39:51.692Z,7.07
2018-04-18T20:42:20.069Z,6.95
2018-04-18T20:44:47.659Z,7.00
2018-04-18T20:47:15.422Z,6.53
2018-04-18T20:49:43.253Z,7.78
2018-04-18T20:52:10.756Z,7.60
2018-04-18T20:54:38.237Z,7.43
2018-04-18T20:57:06.500Z,7.32
2018-04-18T20:59:34.165Z,7.68
2018-04-18T21:02:08.654Z,6.90
2018-04-18T21:04:36.124Z,6.87
2018-04-18T21:07:03.625Z,7.47
2018-04-18T21:09:31.115Z,7.10
2018-04-18T21:12:00.022Z,6.68
2018-04-18T21:14:27.463Z,7.57
2018-04-18T21:16:58.903Z,6.90
2018-04-18T21:19:26.416Z,7.80
2018-04-18T21:21:54.962Z,7.60
2018-04-18T21:24:22.474Z,8.07
2018-04-18T21:26:49.946Z,7.03
2018-04-18T21:29:17.443Z,7.87
2018-04-18T21:31:48.445Z,7.47
2018-04-18T21:34:15.970Z,8.20
2018-04-18T21:36:43.683Z,8.05
2018-04-18T21:39:11.146Z,8.10
2018-04-18T21:41:38.603Z,8.00
2018-04-18T21:44:06.076Z,9.63
2018-04-18T21:46:33.565Z,7.80
2018-04-18T21:49:01.116Z,8.57
2018-04-18T21:51:28.645Z,8.40
2018-04-18T21:53:56.114Z,9.30
2018-04-18T21:56:23.580Z,8.80
2018-04-18T21:58:51.053Z,8.37
2018-04-18T22:01:18.802Z,9.02
2018-04-18T22:03:46.655Z,9.20
2018-04-18T22:06:14.132Z,8.80
2018-04-18T22:08:42.697Z,8.70
2018-04-18T22:11:12.677Z,9.73
2018-04-18T22:13:40.137Z,9.70
2018-04-18T22:16:07.626Z,7.80
2018-04-18T22:18:35.117Z,9.55
2018-04-18T22:21:03.589Z,8.07
2018-04-18T22:23:31.087Z,9.10
2018-04-18T22:25:58.620Z,8.77
2018-04-18T22:28:26.072Z,8.05
2018-04-18T22:30:53.558Z,8.83
2018-04-18T22:33:21.013Z,8.50
2018-04-18T22:35:48.496Z,10.00
2018-04-18T22:38:16.162Z,10.20
2018-04-18T22:40:44.329Z,9.65
2018-04-18T22:43:11.794Z,9.50
2018-04-18T22:45:39.245Z,9.33
2018-04-18T22:48:11.141Z,9.98
2018-04-18T22:50:39.273Z,8.80
2018-04-18T22:53:06.759Z,10.33
2018-04-18T22:55:34.348Z,10.43
2018-04-18T22:58:01.809Z,11.20
2018-04-18T23:00:29.306Z,10.83
2018-04-18T23:02:56.832Z,10.60
2018-04-18T23:05:24.337Z,10.80
2018-04-18T23:07:51.826Z,10.30
2018-04-18T23:10:19.332Z,10.53
2018-04-18T23:12:47.357Z,11.27
2018-04-18T23:15:15.587Z,12.00
2018-04-18T23:17:43.078Z,10.68
2018-04-18T23:20:10.534Z,11.80
2018-04-18T23:22:38.003Z,12.07
2018-04-18T23:25:07.153Z,11.45
2018-04-18T23:27:34.810Z,10.83
2018-04-18T23:30:03.117Z,11.23
2018-04-18T23:32:32.489Z,12.43
2018-04-18T23:34:59.953Z,11.33
2018-04-18T23:37:27.420Z,12.50
2018-04-18T23:39:54.926Z,12.03
2018-04-18T23:42:22.383Z,11.57
2018-04-18T23:44:49.917Z,11.50
2018-04-18T23:47:17.444Z,11.20
2018-04-18T23:49:46.440Z,10.55
2018-04-18T23:52:13.996Z,10.98
2018-04-18T23:54:41.496Z,11.70
2018-04-18T23:57:11.005Z,11.10
2018-04-18T23:59:39.816Z,11.40
